sensor_id;sensor_type;location;lat;lon;timestamp;pressure;altitude;pressure_sealevel;temperature;humidity
9035;BME280;4552;43.422;24.592;2023-01-05T00:18:10;100868.63;;;6.05;100.00
9035;BME280;4552;43.422;24.592;2023-01-05T00:21:16;100861.47;;;5.92;100.00
9035;BME280;4552;43.422;24.592;2023-01-05T00:24:08;100835.31;;;5.83;100.00
9035;BME280;4552;43.422;24.592;2023-01-05T00:26:51;100833.56;;;5.82;100.00
9035;BME280;4552;43.422;24.592;2023-01-05T00:32:09;100840.28;;;5.74;100.00
9035;BME280;4552;43.422;24.592;2023-01-05T00:34:49;100857.00;;;5.85;100.00
9035;BME280;4552;43.422;24.592;2023-01-05T00:37:27;100838.66;;;5.79;100.00
9035;BME280;4552;43.422;24.592;2023-01-05T00:40:07;100854.69;;;6.00;100.00
9035;BME280;4552;43.422;24.592;2023-01-05T00:42:36;100837.41;;;6.02;100.00
9035;BME280;4552;43.422;24.592;2023-01-05T00:45:07;100841.13;;;6.16;100.00
9035;BME280;4552;43.422;24.592;2023-01-05T01:07:15;100802.22;;;6.21;100.00
9035;BME280;4552;43.422;24.592;2023-01-05T01:09:48;100831.88;;;6.30;100.00
9035;BME280;4552;43.422;24.592;2023-01-05T01:12:28;100809.25;;;6.25;100.00
9035;BME280;4552;43.422;24.592;2023-01-05T01:15:02;100783.91;;;6.13;100.00
9035;BME280;4552;43.422;24.592;2023-01-05T01:17:43;100784.16;;;6.28;100.00
9035;BME280;4552;43.422;24.592;2023-01-05T01:20:18;100775.84;;;6.47;100.00
9035;BME280;4552;43.422;24.592;2023-01-05T01:22:51;100770.34;;;6.29;100.00
9035;BME280;4552;43.422;24.592;2023-01-05T01:25:29;100780.06;;;6.42;100.00
9035;BME280;4552;43.422;24.592;2023-01-05T01:35:39;100785.19;;;6.91;100.00
9035;BME280;4552;43.422;24.592;2023-01-05T01:38:18;100748.47;;;6.70;100.00
9035;BME280;4552;43.422;24.592;2023-01-05T01:40:54;100750.38;;;6.83;100.00
9035;BME280;4552;43.422;24.592;2023-01-05T01:43:45;100752.09;;;6.81;100.00
9035;BME280;4552;43.422;24.592;2023-01-05T01:46:17;100728.72;;;6.84;100.00
9035;BME280;4552;43.422;24.592;2023-01-05T01:49:09;100734.91;;;6.94;100.00
9035;BME280;4552;43.422;24.592;2023-01-05T01:51:57;100732.28;;;6.92;100.00
9035;BME280;4552;43.422;24.592;2023-01-05T02:22:06;100686.91;;;7.40;100.00
9035;BME280;4552;43.422;24.592;2023-01-05T02:25:19;100688.53;;;7.32;100.00
9035;BME280;4552;43.422;24.592;2023-01-05T02:28:13;100698.25;;;7.48;100.00
9035;BME280;4552;43.422;24.592;2023-01-05T02:31:28;100709.06;;;7.82;100.00
9035;BME280;4552;43.422;24.592;2023-01-05T02:34:22;100693.47;;;7.85;100.00
9035;BME280;4552;43.422;24.592;2023-01-05T02:37:11;100670.66;;;7.65;100.00
9035;BME280;4552;43.422;24.592;2023-01-05T02:40:02;100664.69;;;7.73;100.00
9035;BME280;4552;43.422;24.592;2023-01-05T02:42:47;100667.47;;;7.93;100.00
9035;BME280;4552;43.422;24.592;2023-01-05T02:45:21;100645.63;;;7.82;100.00
9035;BME280;4552;43.422;24.592;2023-01-05T02:48:08;100653.50;;;7.88;100.00
9035;BME280;4552;43.422;24.592;2023-01-05T03:19:11;100573.03;;;7.22;100.00
9035;BME280;4552;43.422;24.592;2023-01-05T03:22:15;100562.41;;;7.01;100.00
9035;BME280;4552;43.422;24.592;2023-01-05T03:25:02;100568.38;;;6.94;100.00
9035;BME280;4552;43.422;24.592;2023-01-05T03:27:47;100601.44;;;7.01;100.00
9035;BME280;4552;43.422;24.592;2023-01-05T03:30:38;100570.88;;;6.86;100.00
9035;BME280;4552;43.422;24.592;2023-01-05T03:40:17;100579.06;;;6.43;100.00
9035;BME280;4552;43.422;24.592;2023-01-05T03:46:39;100565.69;;;6.19;100.00
9035;BME280;4552;43.422;24.592;2023-01-05T03:49:23;100563.94;;;6.15;100.00
9035;BME280;4552;43.422;24.592;2023-01-05T04:00:43;100582.63;;;5.93;100.00
9035;BME280;4552;43.422;24.592;2023-01-05T04:03:16;100558.06;;;5.73;100.00
9035;BME280;4552;43.422;24.592;2023-01-05T04:06:17;100542.47;;;5.73;100.00
9035;BME280;4552;43.422;24.592;2023-01-05T04:09:00;100556.56;;;5.87;100.00
9035;BME280;4552;43.422;24.592;2023-01-05T04:19:41;100565.50;;;6.04;100.00
9035;BME280;4552;43.422;24.592;2023-01-05T04:22:15;100553.50;;;6.12;100.00
9035;BME280;4552;43.422;24.592;2023-01-05T04:24:43;100591.28;;;6.52;100.00
9035;BME280;4552;43.422;24.592;2023-01-05T04:27:13;100562.16;;;6.13;100.00
9035;BME280;4552;43.422;24.592;2023-01-05T04:29:57;100561.06;;;5.97;100.00
9035;BME280;4552;43.422;24.592;2023-01-05T04:32:24;100540.63;;;5.66;100.00
9035;BME280;4552;43.422;24.592;2023-01-05T04:34:55;100568.97;;;5.53;100.00
9035;BME280;4552;43.422;24.592;2023-01-05T04:37:25;100525.25;;;5.24;100.00
9035;BME280;4552;43.422;24.592;2023-01-05T04:40:12;100516.25;;;5.06;100.00
9035;BME280;4552;43.422;24.592;2023-01-05T04:45:33;100539.84;;;5.18;100.00
9035;BME280;4552;43.422;24.592;2023-01-05T04:48:03;100509.03;;;4.87;100.00
9035;BME280;4552;43.422;24.592;2023-01-05T04:57:38;100515.22;;;4.95;100.00
9035;BME280;4552;43.422;24.592;2023-01-05T05:00:28;100513.88;;;4.69;100.00
9035;BME280;4552;43.422;24.592;2023-01-05T05:03:03;100534.50;;;4.63;100.00
9035;BME280;4552;43.422;24.592;2023-01-05T05:05:43;100531.91;;;4.63;100.00
9035;BME280;4552;43.422;24.592;2023-01-05T05:08:18;100537.63;;;4.48;100.00
9035;BME280;4552;43.422;24.592;2023-01-05T05:10:50;100494.31;;;4.41;100.00
9035;BME280;4552;43.422;24.592;2023-01-05T05:14:03;100486.16;;;4.22;100.00
9035;BME280;4552;43.422;24.592;2023-01-05T05:17:10;100487.22;;;4.33;100.00
9035;BME280;4552;43.422;24.592;2023-01-05T05:19:50;100489.06;;;4.37;100.00
9035;BME280;4552;43.422;24.592;2023-01-05T05:22:19;100493.22;;;4.30;100.00
9035;BME280;4552;43.422;24.592;2023-01-05T05:24:52;100525.44;;;4.43;100.00
9035;BME280;4552;43.422;24.592;2023-01-05T05:27:22;100525.97;;;4.70;100.00
9035;BME280;4552;43.422;24.592;2023-01-05T05:30:15;100528.75;;;4.37;100.00
9035;BME280;4552;43.422;24.592;2023-01-05T05:32:48;100493.00;;;4.20;100.00
9035;BME280;4552;43.422;24.592;2023-01-05T05:38:09;100487.78;;;4.17;100.00
9035;BME280;4552;43.422;24.592;2023-01-05T05:40:40;100491.53;;;4.31;100.00
9035;BME280;4552;43.422;24.592;2023-01-05T05:43:09;100434.19;;;4.16;100.00
9035;BME280;4552;43.422;24.592;2023-01-05T05:45:43;100473.31;;;4.28;100.00
9035;BME280;4552;43.422;24.592;2023-01-05T05:48:15;100468.22;;;4.31;100.00
9035;BME280;4552;43.422;24.592;2023-01-05T05:51:21;100447.69;;;4.41;100.00
9035;BME280;4552;43.422;24.592;2023-01-05T05:54:03;100467.13;;;4.64;100.00
9035;BME280;4552;43.422;24.592;2023-01-05T05:56:34;100459.28;;;4.60;100.00
9035;BME280;4552;43.422;24.592;2023-01-05T05:59:02;100442.16;;;4.71;100.00
9035;BME280;4552;43.422;24.592;2023-01-05T06:01:31;100464.22;;;4.95;100.00
9035;BME280;4552;43.422;24.592;2023-01-05T06:04:02;100475.50;;;4.99;100.00
9035;BME280;4552;43.422;24.592;2023-01-05T06:06:37;100479.84;;;5.00;100.00
9035;BME280;4552;43.422;24.592;2023-01-05T06:09:04;100470.19;;;4.91;100.00
9035;BME280;4552;43.422;24.592;2023-01-05T06:11:37;100468.34;;;4.83;100.00
9035;BME280;4552;43.422;24.592;2023-01-05T06:14:28;100467.22;;;4.69;100.00
9035;BME280;4552;43.422;24.592;2023-01-05T06:17:12;100480.22;;;4.72;100.00
9035;BME280;4552;43.422;24.592;2023-01-05T06:19:39;100471.94;;;4.46;100.00
9035;BME280;4552;43.422;24.592;2023-01-05T06:22:14;100446.69;;;4.35;100.00
9035;BME280;4552;43.422;24.592;2023-01-05T06:24:50;100446.25;;;4.57;100.00
9035;BME280;4552;43.422;24.592;2023-01-05T06:27:22;100432.34;;;4.53;100.00
9035;BME280;4552;43.422;24.592;2023-01-05T06:29:49;100441.91;;;4.56;100.00
9035;BME280;4552;43.422;24.592;2023-01-05T06:32:18;100436.88;;;4.65;100.00
9035;BME280;4552;43.422;24.592;2023-01-05T06:34:45;100429.47;;;4.84;100.00
9035;BME280;4552;43.422;24.592;2023-01-05T06:37:12;100404.34;;;4.82;100.00
9035;BME280;4552;43.422;24.592;2023-01-05T06:39:50;100409.81;;;5.00;100.00
9035;BME280;4552;43.422;24.592;2023-01-05T06:42:35;100409.38;;;5.26;100.00
9035;BME280;4552;43.422;24.592;2023-01-05T06:45:02;100403.56;;;5.44;100.00
9035;BME280;4552;43.422;24.592;2023-01-05T06:47:30;100418.72;;;5.75;100.00
9035;BME280;4552;43.422;24.592;2023-01-05T06:50:01;100411.00;;;5.81;100.00
9035;BME280;4552;43.422;24.592;2023-01-05T06:52:30;100440.72;;;5.98;100.00
9035;BME280;4552;43.422;24.592;2023-01-05T06:55:02;100449.72;;;6.27;100.00
9035;BME280;4552;43.422;24.592;2023-01-05T06:57:30;100436.78;;;6.30;100.00
9035;BME280;4552;43.422;24.592;2023-01-05T07:00:07;100392.28;;;6.03;100.00
9035;BME280;4552;43.422;24.592;2023-01-05T07:02:38;100419.22;;;6.10;100.00
9035;BME280;4552;43.422;24.592;2023-01-05T07:05:09;100428.75;;;6.12;100.00
9035;BME280;4552;43.422;24.592;2023-01-05T07:07:37;100424.50;;;6.17;100.00
9035;BME280;4552;43.422;24.592;2023-01-05T07:10:06;100432.38;;;6.23;100.00
9035;BME280;4552;43.422;24.592;2023-01-05T07:12:34;100416.75;;;6.20;100.00
9035;BME280;4552;43.422;24.592;2023-01-05T07:15:02;100435.84;;;6.25;100.00
9035;BME280;4552;43.422;24.592;2023-01-05T07:17:32;100413.41;;;6.33;100.00
9035;BME280;4552;43.422;24.592;2023-01-05T07:20:04;100421.41;;;6.51;100.00
9035;BME280;4552;43.422;24.592;2023-01-05T07:22:32;100421.50;;;6.63;100.00
9035;BME280;4552;43.422;24.592;2023-01-05T07:25:02;100420.78;;;6.76;100.00
9035;BME280;4552;43.422;24.592;2023-01-05T07:27:49;100395.81;;;6.96;100.00
9035;BME280;4552;43.422;24.592;2023-01-05T07:30:20;100387.09;;;6.91;100.00
9035;BME280;4552;43.422;24.592;2023-01-05T07:32:47;100426.25;;;7.06;100.00
9035;BME280;4552;43.422;24.592;2023-01-05T07:35:16;100426.34;;;7.19;100.00
9035;BME280;4552;43.422;24.592;2023-01-05T07:37:44;100402.88;;;7.14;100.00
9035;BME280;4552;43.422;24.592;2023-01-05T07:40:13;100388.16;;;7.18;100.00
9035;BME280;4552;43.422;24.592;2023-01-05T07:42:43;100420.50;;;7.51;100.00
9035;BME280;4552;43.422;24.592;2023-01-05T07:45:16;100381.34;;;7.36;100.00
9035;BME280;4552;43.422;24.592;2023-01-05T07:47:44;100405.75;;;7.49;100.00
9035;BME280;4552;43.422;24.592;2023-01-05T07:50:13;100384.09;;;7.60;100.00
9035;BME280;4552;43.422;24.592;2023-01-05T07:52:58;100353.75;;;7.67;100.00
9035;BME280;4552;43.422;24.592;2023-01-05T07:55:53;100367.75;;;7.96;100.00
9035;BME280;4552;43.422;24.592;2023-01-05T07:58:28;100373.78;;;7.89;100.00
9035;BME280;4552;43.422;24.592;2023-01-05T08:01:05;100352.09;;;7.88;100.00
9035;BME280;4552;43.422;24.592;2023-01-05T08:03:55;100332.13;;;7.95;100.00
9035;BME280;4552;43.422;24.592;2023-01-05T08:06:25;100376.53;;;8.19;100.00
9035;BME280;4552;43.422;24.592;2023-01-05T08:11:29;100347.81;;;8.02;100.00
9035;BME280;4552;43.422;24.592;2023-01-05T08:14:05;100373.09;;;8.23;100.00
9035;BME280;4552;43.422;24.592;2023-01-05T08:16:32;100345.28;;;8.28;100.00
9035;BME280;4552;43.422;24.592;2023-01-05T08:19:00;100328.78;;;8.42;100.00
9035;BME280;4552;43.422;24.592;2023-01-05T08:21:32;100332.28;;;8.52;100.00
9035;BME280;4552;43.422;24.592;2023-01-05T08:23:59;100354.03;;;8.90;100.00
9035;BME280;4552;43.422;24.592;2023-01-05T08:26:30;100335.72;;;9.13;100.00
9035;BME280;4552;43.422;24.592;2023-01-05T08:28:59;100339.97;;;9.62;100.00
9035;BME280;4552;43.422;24.592;2023-01-05T08:31:29;100336.41;;;9.82;100.00
9035;BME280;4552;43.422;24.592;2023-01-05T08:34:02;100305.06;;;9.79;100.00
9035;BME280;4552;43.422;24.592;2023-01-05T08:36:37;100329.34;;;10.08;97.83
9035;BME280;4552;43.422;24.592;2023-01-05T08:39:12;100314.50;;;10.10;97.72
9035;BME280;4552;43.422;24.592;2023-01-05T08:41:44;100316.28;;;9.98;97.42
9035;BME280;4552;43.422;24.592;2023-01-05T08:44:15;100312.88;;;9.87;97.13
9035;BME280;4552;43.422;24.592;2023-01-05T08:46:45;100293.50;;;10.19;97.25
9035;BME280;4552;43.422;24.592;2023-01-05T08:49:14;100303.03;;;10.31;94.82
9035;BME280;4552;43.422;24.592;2023-01-05T08:51:50;100297.69;;;10.47;93.00
9035;BME280;4552;43.422;24.592;2023-01-05T08:54:18;100314.78;;;10.91;91.54
9035;BME280;4552;43.422;24.592;2023-01-05T08:56:47;100296.44;;;10.91;89.25
9035;BME280;4552;43.422;24.592;2023-01-05T08:59:25;100283.34;;;10.91;87.60
9035;BME280;4552;43.422;24.592;2023-01-05T09:02:01;100298.75;;;11.21;85.43
9035;BME280;4552;43.422;24.592;2023-01-05T09:04:51;100286.59;;;11.17;84.71
9035;BME280;4552;43.422;24.592;2023-01-05T09:07:22;100288.28;;;11.21;83.59
9035;BME280;4552;43.422;24.592;2023-01-05T09:09:52;100281.31;;;11.18;83.52
9035;BME280;4552;43.422;24.592;2023-01-05T09:12:26;100273.56;;;11.11;83.66
9035;BME280;4552;43.422;24.592;2023-01-05T09:15:13;100263.19;;;10.99;83.27
9035;BME280;4552;43.422;24.592;2023-01-05T09:17:58;100241.22;;;11.12;82.25
9035;BME280;4552;43.422;24.592;2023-01-05T09:20:39;100282.06;;;11.31;81.05
9035;BME280;4552;43.422;24.592;2023-01-05T09:26:17;100275.16;;;11.22;81.75
9035;BME280;4552;43.422;24.592;2023-01-05T09:42:57;100236.88;;;11.82;80.08
9035;BME280;4552;43.422;24.592;2023-01-05T09:45:27;100253.16;;;12.03;81.43
9035;BME280;4552;43.422;24.592;2023-01-05T09:48:19;100230.38;;;12.07;80.67
9035;BME280;4552;43.422;24.592;2023-01-05T09:50:53;100232.63;;;12.31;80.23
9035;BME280;4552;43.422;24.592;2023-01-05T09:53:26;100226.97;;;12.55;79.15
9035;BME280;4552;43.422;24.592;2023-01-05T09:56:00;100206.19;;;12.42;79.67
9035;BME280;4552;43.422;24.592;2023-01-05T09:58:37;100221.81;;;12.49;79.12
9035;BME280;4552;43.422;24.592;2023-01-05T10:01:15;100176.66;;;12.29;78.73
9035;BME280;4552;43.422;24.592;2023-01-05T10:03:53;100177.53;;;12.30;78.71
9035;BME280;4552;43.422;24.592;2023-01-05T10:06:34;100197.59;;;12.32;78.48
9035;BME280;4552;43.422;24.592;2023-01-05T10:09:05;100148.91;;;12.16;78.73
9035;BME280;4552;43.422;24.592;2023-01-05T10:11:46;100149.88;;;12.59;76.47
9035;BME280;4552;43.422;24.592;2023-01-05T10:14:39;100146.56;;;12.50;76.11
9035;BME280;4552;43.422;24.592;2023-01-05T10:17:12;100141.91;;;12.65;75.87
9035;BME280;4552;43.422;24.592;2023-01-05T10:19:58;100134.63;;;12.78;75.00
9035;BME280;4552;43.422;24.592;2023-01-05T10:22:43;100128.34;;;12.86;72.42
9035;BME280;4552;43.422;24.592;2023-01-05T10:25:20;100120.41;;;12.89;71.57
9035;BME280;4552;43.422;24.592;2023-01-05T10:27:57;100112.53;;;12.89;69.56
9035;BME280;4552;43.422;24.592;2023-01-05T10:30:44;100107.88;;;13.03;68.52
9035;BME280;4552;43.422;24.592;2023-01-05T10:33:24;100136.00;;;13.39;67.09
9035;BME280;4552;43.422;24.592;2023-01-05T10:35:59;100131.69;;;13.75;65.36
9035;BME280;4552;43.422;24.592;2023-01-05T10:38:52;100134.13;;;13.82;60.94
9035;BME280;4552;43.422;24.592;2023-01-05T10:41:38;100136.75;;;13.82;60.09
9035;BME280;4552;43.422;24.592;2023-01-05T10:44:38;100124.63;;;13.75;60.88
9035;BME280;4552;43.422;24.592;2023-01-05T10:47:37;100097.84;;;13.97;59.79
9035;BME280;4552;43.422;24.592;2023-01-05T10:50:31;100094.97;;;14.06;58.13
9035;BME280;4552;43.422;24.592;2023-01-05T10:53:11;100096.09;;;14.31;55.70
9035;BME280;4552;43.422;24.592;2023-01-05T10:56:00;100092.53;;;14.33;54.50
9035;BME280;4552;43.422;24.592;2023-01-05T10:58:33;100093.38;;;14.34;52.55
9035;BME280;4552;43.422;24.592;2023-01-05T11:01:24;100085.72;;;14.25;51.63
9035;BME280;4552;43.422;24.592;2023-01-05T11:04:11;100096.75;;;14.39;50.66
9035;BME280;4552;43.422;24.592;2023-01-05T11:06:42;100080.06;;;14.38;48.97
9035;BME280;4552;43.422;24.592;2023-01-05T11:09:18;100100.13;;;14.76;48.11
9035;BME280;4552;43.422;24.592;2023-01-05T11:11:58;100075.91;;;14.92;47.85
9035;BME280;4552;43.422;24.592;2023-01-05T11:14:41;100094.53;;;15.17;48.35
9035;BME280;4552;43.422;24.592;2023-01-05T11:17:18;100063.78;;;14.87;47.43
9035;BME280;4552;43.422;24.592;2023-01-05T11:20:38;100060.88;;;14.96;47.38
9035;BME280;4552;43.422;24.592;2023-01-05T11:23:34;100043.38;;;14.93;47.27
9035;BME280;4552;43.422;24.592;2023-01-05T11:26:24;100078.44;;;14.97;48.46
9035;BME280;4552;43.422;24.592;2023-01-05T11:28:58;100076.94;;;14.88;48.67
9035;BME280;4552;43.422;24.592;2023-01-05T11:32:01;100058.44;;;14.90;48.09
9035;BME280;4552;43.422;24.592;2023-01-05T11:34:36;100085.16;;;14.78;47.98
9035;BME280;4552;43.422;24.592;2023-01-05T11:41:07;100073.72;;;14.77;48.62
9035;BME280;4552;43.422;24.592;2023-01-05T11:43:46;100075.38;;;15.10;49.03
9035;BME280;4552;43.422;24.592;2023-01-05T11:46:14;100038.00;;;14.96;48.27
9035;BME280;4552;43.422;24.592;2023-01-05T11:48:52;100048.31;;;14.75;48.91
9035;BME280;4552;43.422;24.592;2023-01-05T11:51:33;100033.50;;;14.71;49.48
9035;BME280;4552;43.422;24.592;2023-01-05T11:54:03;100027.97;;;14.80;49.44
9035;BME280;4552;43.422;24.592;2023-01-05T11:56:36;100035.31;;;14.98;49.33
9035;BME280;4552;43.422;24.592;2023-01-05T11:59:27;100003.69;;;14.69;48.59
9035;BME280;4552;43.422;24.592;2023-01-05T12:02:02;100004.72;;;14.65;48.85
9035;BME280;4552;43.422;24.592;2023-01-05T12:04:54;100018.41;;;14.77;49.57
9035;BME280;4552;43.422;24.592;2023-01-05T12:07:32;100001.88;;;14.71;49.59
9035;BME280;4552;43.422;24.592;2023-01-05T12:10:15;99989.06;;;14.59;50.24
9035;BME280;4552;43.422;24.592;2023-01-05T12:12:55;99994.06;;;14.68;50.35
9035;BME280;4552;43.422;24.592;2023-01-05T12:16:04;100014.56;;;14.87;50.20
9035;BME280;4552;43.422;24.592;2023-01-05T12:21:51;99991.53;;;15.21;49.98
9035;BME280;4552;43.422;24.592;2023-01-05T12:24:40;99998.06;;;15.37;49.82
9035;BME280;4552;43.422;24.592;2023-01-05T12:27:31;99963.59;;;15.16;50.00
9035;BME280;4552;43.422;24.592;2023-01-05T12:30:20;99974.09;;;15.17;50.49
9035;BME280;4552;43.422;24.592;2023-01-05T12:33:19;99997.41;;;15.31;50.32
9035;BME280;4552;43.422;24.592;2023-01-05T12:36:03;99967.34;;;15.35;49.85
9035;BME280;4552;43.422;24.592;2023-01-05T12:38:37;99989.63;;;15.54;49.80
9035;BME280;4552;43.422;24.592;2023-01-05T12:49:25;99941.84;;;15.63;47.61
9035;BME280;4552;43.422;24.592;2023-01-05T12:52:06;99949.50;;;15.71;47.90
9035;BME280;4552;43.422;24.592;2023-01-05T12:54:40;99958.81;;;15.81;47.96
9035;BME280;4552;43.422;24.592;2023-01-05T12:57:17;99967.28;;;15.90;46.93
9035;BME280;4552;43.422;24.592;2023-01-05T12:59:53;99951.34;;;15.67;46.69
9035;BME280;4552;43.422;24.592;2023-01-05T13:02:30;99959.16;;;15.70;45.92
9035;BME280;4552;43.422;24.592;2023-01-05T13:08:03;99960.88;;;15.71;46.03
9035;BME280;4552;43.422;24.592;2023-01-05T13:10:54;99962.09;;;15.87;45.86
9035;BME280;4552;43.422;24.592;2023-01-05T13:13:30;99968.66;;;16.00;45.20
9035;BME280;4552;43.422;24.592;2023-01-05T13:16:10;99963.19;;;16.06;45.60
9035;BME280;4552;43.422;24.592;2023-01-05T13:18:47;99943.03;;;16.04;45.33
9035;BME280;4552;43.422;24.592;2023-01-05T13:21:17;99936.13;;;15.75;46.06
9035;BME280;4552;43.422;24.592;2023-01-05T13:23:52;99954.22;;;15.61;45.34
9035;BME280;4552;43.422;24.592;2023-01-05T13:26:22;99948.22;;;15.56;45.87
9035;BME280;4552;43.422;24.592;2023-01-05T13:28:52;99978.25;;;15.78;45.86
9035;BME280;4552;43.422;24.592;2023-01-05T13:37:19;99948.56;;;15.45;46.60
9035;BME280;4552;43.422;24.592;2023-01-05T13:40:18;99961.31;;;15.59;46.42
9035;BME280;4552;43.422;24.592;2023-01-05T13:43:27;99941.38;;;15.50;46.53
9035;BME280;4552;43.422;24.592;2023-01-05T13:46:13;99974.19;;;15.68;46.39
9035;BME280;4552;43.422;24.592;2023-01-05T13:49:24;99962.06;;;15.63;46.74
9035;BME280;4552;43.422;24.592;2023-01-05T13:52:00;99960.72;;;15.77;46.52
9035;BME280;4552;43.422;24.592;2023-01-05T13:57:36;99927.94;;;15.58;46.37
9035;BME280;4552;43.422;24.592;2023-01-05T14:00:24;99961.91;;;15.67;46.69
9035;BME280;4552;43.422;24.592;2023-01-05T14:03:20;99942.34;;;15.48;47.11
9035;BME280;4552;43.422;24.592;2023-01-05T14:05:53;99943.88;;;15.55;47.01
9035;BME280;4552;43.422;24.592;2023-01-05T14:08:23;99958.56;;;15.62;47.06
9035;BME280;4552;43.422;24.592;2023-01-05T14:11:13;99936.97;;;15.51;47.03
9035;BME280;4552;43.422;24.592;2023-01-05T14:13:55;99955.22;;;15.83;46.83
9035;BME280;4552;43.422;24.592;2023-01-05T14:19:50;99917.13;;;15.39;50.12
9035;BME280;4552;43.422;24.592;2023-01-05T14:25:51;99915.03;;;15.23;52.16
9035;BME280;4552;43.422;24.592;2023-01-05T14:31:50;99937.81;;;15.24;52.92
9035;BME280;4552;43.422;24.592;2023-01-05T14:34:26;99937.34;;;15.13;54.45
9035;BME280;4552;43.422;24.592;2023-01-05T14:37:16;99917.34;;;15.06;55.10
9035;BME280;4552;43.422;24.592;2023-01-05T14:39:52;99919.63;;;15.16;55.50
9035;BME280;4552;43.422;24.592;2023-01-05T14:42:29;99899.38;;;14.91;56.13
9035;BME280;4552;43.422;24.592;2023-01-05T14:45:23;99910.84;;;14.90;57.27
9035;BME280;4552;43.422;24.592;2023-01-05T14:48:06;99916.41;;;14.81;57.21
9035;BME280;4552;43.422;24.592;2023-01-05T14:51:22;99893.84;;;14.43;57.75
9035;BME280;4552;43.422;24.592;2023-01-05T14:53:59;99889.06;;;14.27;58.01
9035;BME280;4552;43.422;24.592;2023-01-05T14:56:30;99901.88;;;14.08;58.95
9035;BME280;4552;43.422;24.592;2023-01-05T14:59:38;99889.69;;;13.73;60.02
9035;BME280;4552;43.422;24.592;2023-01-05T15:02:32;99913.50;;;13.69;61.24
9035;BME280;4552;43.422;24.592;2023-01-05T15:05:16;99877.94;;;13.21;62.24
9035;BME280;4552;43.422;24.592;2023-01-05T15:10:50;99890.81;;;13.31;62.53
9035;BME280;4552;43.422;24.592;2023-01-05T15:13:53;99895.34;;;13.26;63.15
9035;BME280;4552;43.422;24.592;2023-01-05T15:17:08;99872.47;;;12.93;64.15
9035;BME280;4552;43.422;24.592;2023-01-05T15:20:02;99892.66;;;12.93;65.17
9035;BME280;4552;43.422;24.592;2023-01-05T15:23:13;99890.75;;;12.61;65.46
9035;BME280;4552;43.422;24.592;2023-01-05T15:26:12;99876.06;;;12.53;66.73
9035;BME280;4552;43.422;24.592;2023-01-05T15:29:17;99866.50;;;12.52;67.29
9035;BME280;4552;43.422;24.592;2023-01-05T15:31:59;99865.38;;;12.22;68.23
9035;BME280;4552;43.422;24.592;2023-01-05T15:34:34;99887.69;;;12.41;68.94
9035;BME280;4552;43.422;24.592;2023-01-05T15:42:37;99874.47;;;12.06;70.11
9035;BME280;4552;43.422;24.592;2023-01-05T15:45:15;99860.53;;;12.04;69.72
9035;BME280;4552;43.422;24.592;2023-01-05T15:58:14;99872.22;;;11.41;72.19
9035;BME280;4552;43.422;24.592;2023-01-05T16:03:23;99855.00;;;11.28;74.53
9035;BME280;4552;43.422;24.592;2023-01-05T16:06:09;99851.66;;;11.20;72.98
9035;BME280;4552;43.422;24.592;2023-01-05T16:09:05;99851.94;;;11.05;74.71
9035;BME280;4552;43.422;24.592;2023-01-05T16:14:28;99852.25;;;10.84;75.92
9035;BME280;4552;43.422;24.592;2023-01-05T16:17:26;99884.28;;;10.99;75.82
9035;BME280;4552;43.422;24.592;2023-01-05T16:20:20;99856.75;;;10.77;77.18
9035;BME280;4552;43.422;24.592;2023-01-05T16:23:36;99857.53;;;10.81;77.55
9035;BME280;4552;43.422;24.592;2023-01-05T16:26:24;99888.78;;;10.93;77.27
9035;BME280;4552;43.422;24.592;2023-01-05T16:35:32;99885.91;;;11.09;76.57
9035;BME280;4552;43.422;24.592;2023-01-05T16:38:29;99908.53;;;11.12;76.41
9035;BME280;4552;43.422;24.592;2023-01-05T16:41:20;99887.03;;;10.92;75.16
9035;BME280;4552;43.422;24.592;2023-01-05T16:43:56;99902.56;;;11.04;77.39
9035;BME280;4552;43.422;24.592;2023-01-05T16:46:32;99902.66;;;10.98;76.88
9035;BME280;4552;43.422;24.592;2023-01-05T16:51:53;99878.38;;;10.30;78.79
9035;BME280;4552;43.422;24.592;2023-01-05T16:54:31;99874.31;;;10.05;78.68
9035;BME280;4552;43.422;24.592;2023-01-05T16:57:31;99903.94;;;10.04;81.41
9035;BME280;4552;43.422;24.592;2023-01-05T17:00:42;99881.44;;;9.93;80.76
9035;BME280;4552;43.422;24.592;2023-01-05T17:03:35;99883.03;;;10.04;81.12
9035;BME280;4552;43.422;24.592;2023-01-05T17:06:20;99879.34;;;10.23;81.76
9035;BME280;4552;43.422;24.592;2023-01-05T17:08:50;99862.66;;;10.32;82.19
9035;BME280;4552;43.422;24.592;2023-01-05T17:11:26;99869.25;;;10.59;81.73
9035;BME280;4552;43.422;24.592;2023-01-05T17:13:56;99854.22;;;10.71;81.38
9035;BME280;4552;43.422;24.592;2023-01-05T17:16:33;99848.72;;;10.88;79.45
9035;BME280;4552;43.422;24.592;2023-01-05T17:19:11;99833.00;;;10.88;78.12
9035;BME280;4552;43.422;24.592;2023-01-05T17:21:51;99859.03;;;10.97;77.54
9035;BME280;4552;43.422;24.592;2023-01-05T17:24:33;99864.38;;;10.91;77.70
9035;BME280;4552;43.422;24.592;2023-01-05T17:27:14;99882.31;;;11.13;77.46
9035;BME280;4552;43.422;24.592;2023-01-05T17:29:42;99892.66;;;11.21;77.30
9035;BME280;4552;43.422;24.592;2023-01-05T17:38:36;99876.66;;;10.86;76.78
9035;BME280;4552;43.422;24.592;2023-01-05T17:41:23;99895.03;;;10.83;77.47
9035;BME280;4552;43.422;24.592;2023-01-05T17:43:50;99873.94;;;10.92;77.44
9035;BME280;4552;43.422;24.592;2023-01-05T17:48:49;99913.06;;;10.44;79.57
9035;BME280;4552;43.422;24.592;2023-01-05T17:51:18;99899.28;;;10.32;79.83
9035;BME280;4552;43.422;24.592;2023-01-05T17:53:58;99910.38;;;10.49;79.98
9035;BME280;4552;43.422;24.592;2023-01-05T17:56:27;99923.25;;;10.64;79.09
9035;BME280;4552;43.422;24.592;2023-01-05T17:59:07;99904.75;;;10.75;77.24
9035;BME280;4552;43.422;24.592;2023-01-05T18:01:37;99902.72;;;10.95;74.78
9035;BME280;4552;43.422;24.592;2023-01-05T18:04:06;99936.28;;;11.25;73.44
9035;BME280;4552;43.422;24.592;2023-01-05T18:06:43;99910.94;;;11.24;72.57
9035;BME280;4552;43.422;24.592;2023-01-05T18:09:28;99897.16;;;11.13;72.25
9035;BME280;4552;43.422;24.592;2023-01-05T18:12:12;99925.69;;;11.32;71.12
9035;BME280;4552;43.422;24.592;2023-01-05T18:14:40;99926.47;;;11.36;70.96